Aiguafreda





Hora UTC 19:40
Temperatura 8.5 ºC
Sòl 15 cm 7.6 ºC
Humitat 93.8 %
Pressió 1020.0 hPa
Pluja 0.0 mm
Velocitat vent 0.0 km/h
Direcció vent NNE
Radiació solar 0.3 W/m²

Dades diàries 2020-01-29



Hora UTC (hivern +1h; estiu +2h)
Temperatura (ºC) Humitat (%) Pressió (hPa) Velocitat vent (km/h) Precipitació (mm) Radiació solar (W/m²)
Hora UTC Aire Sòl 15 cm Humitat Pressió Vel. Dir. Vel. Max Dir. Intent. màx 5 min. Rad. Sol.
00:05 4.8 3.4 97.5 1017.5 0.7 SE 0.7 ESE 0.0 0.3
00:10 4.6 3.2 97.4 1017.4 0.1 S 3.4 SE 0.0 0.3
00:15 4.5 3.1 97.4 1017.5 0.0 NNE 0.0 SSW 0.0 0.3
00:20 4.4 2.9 97.4 1017.5 2.9 NE 6.1 NE 0.0 0.3
00:25 4.5 3.1 97.7 1017.4 0.7 WNW 6.1 WNW 0.0 0.3
00:30 4.4 3.0 97.5 1017.4 1.5 SSW 8.8 WSW 0.0 0.3
00:35 4.5 3.2 97.8 1017.5 1.8 ESE 8.8 E 0.0 0.3
00:40 4.5 3.1 97.5 1017.5 0.2 E 3.4 ESE 0.0 0.3
00:45 4.5 3.1 97.5 1017.5 1.0 ENE 6.1 ENE 0.0 0.3
00:50 4.4 3.1 97.4 1017.5 1.3 S 6.1 SE 0.0 0.3
00:55 4.4 3.0 97.5 1017.6 0.6 ENE 6.1 ESE 0.0 0.3
01:00 4.5 3.1 97.8 1017.6 1.4 ENE 6.1 E 0.0 0.3
01:05 4.4 3.0 97.5 1017.7 1.0 W 6.1 W 0.0 0.3
01:10 4.4 3.0 97.5 1017.6 0.9 NE 6.1 NE 0.0 0.3
01:15 4.3 2.9 97.3 1017.6 0.2 ESE 3.4 ESE 0.0 0.3
01:20 4.2 2.7 97.3 1017.6 0.0 NNE 0.0 NW 0.0 0.3
01:25 4.1 2.5 97.3 1017.6 0.0 NNE 0.0 NNE 0.0 0.3
01:30 4.0 2.4 97.3 1017.6 0.0 NNE 0.0 N 0.0 0.3
01:35 3.9 2.4 97.5 1017.5 0.0 NNE 3.4 NNE 0.0 0.3
01:40 3.9 2.4 97.5 1017.5 0.5 ENE 3.4 E 0.0 0.3
01:45 4.0 2.4 97.7 1017.4 0.0 NNE 0.0 NNE 0.0 0.3
01:50 3.9 2.4 97.5 1017.4 0.0 NNE 0.0 NW 0.0 0.3
01:55 3.8 2.3 97.5 1017.5 0.0 ENE 3.4 ENE 0.0 0.3
02:00 3.7 2.2 97.6 1017.5 0.7 W 6.1 W 0.0 0.3
02:05 3.6 2.2 97.5 1017.5 0.6 SE 6.1 SE 0.0 0.3
02:10 3.5 2.0 97.5 1017.5 0.0 NNE 0.0 ESE 0.0 0.3
02:15 3.5 1.9 97.7 1017.6 0.0 NNE 0.0 N 0.0 0.3
02:20 3.4 1.8 97.6 1017.6 0.0 NNE 0.0 NE 0.0 0.3
02:25 3.4 1.6 97.6 1017.6 0.0 NNE 0.0 NE 0.0 0.3
02:30 3.4 1.8 97.8 1017.5 0.2 NE 3.4 NE 0.0 0.3
02:35 3.4 1.7 97.8 1017.5 0.0 NNE 0.0 N 0.0 0.3
02:40 3.4 1.9 98.0 1017.4 1.7 NE 8.8 NE 0.0 0.3
02:45 3.8 2.2 98.3 1017.5 1.4 NE 14.2 NE 0.0 0.3
02:50 3.8 2.2 98.0 1017.5 0.0 NE 3.4 NE 0.0 0.3
02:55 3.6 2.0 97.8 1017.6 0.0 NNE 0.0 ESE 0.0 0.3
03:00 3.7 2.0 98.0 1017.6 0.0 NNE 0.0 S 0.0 0.3
03:05 3.7 2.0 98.0 1017.7 0.0 NNE 0.0 W 0.0 0.3
03:10 3.5 1.8 97.7 1017.7 0.0 NNE 0.0 WSW 0.0 0.3
03:15 3.4 1.7 97.7 1017.5 0.0 NNE 0.0 WSW 0.0 0.3
03:20 3.3 1.7 97.7 1017.7 0.1 ESE 3.4 ESE 0.0 0.3
03:25 3.3 1.8 97.9 1017.8 0.3 ESE 6.1 ESE 0.0 0.3
03:30 3.2 1.7 97.8 1017.6 0.0 NNE 0.0 ESE 0.0 0.3
03:35 3.2 1.7 97.8 1017.6 0.0 NNE 0.0 E 0.0 0.3
03:40 3.1 1.7 97.8 1017.6 0.0 NNE 0.0 SW 0.0 0.3
03:45 3.0 1.6 97.9 1017.5 0.1 NE 3.4 NE 0.0 0.3
03:50 3.0 1.6 97.9 1017.7 0.0 NNE 0.0 N 0.0 0.3
03:55 2.9 1.5 97.8 1017.9 0.0 NNE 0.0 N 0.0 0.3
04:00 2.9 1.4 97.8 1017.9 0.0 NNE 0.0 N 0.0 0.3
04:05 2.9 1.4 97.9 1017.8 0.0 NNE 0.0 NW 0.0 0.3
04:10 2.8 1.3 97.8 1017.8 0.0 NNE 0.0 WNW 0.0 0.3
04:15 2.7 1.3 97.9 1017.9 0.0 NNE 0.0 WNW 0.0 0.3
04:20 2.7 1.3 97.9 1018.0 0.0 NNE 0.0 NW 0.0 0.3
04:25 2.6 1.1 97.9 1018.0 0.0 NNE 0.0 S 0.0 0.3
04:30 2.6 1.1 97.9 1018.0 0.0 NNE 0.0 S 0.0 0.3
04:35 2.6 1.1 97.9 1018.1 0.0 NNE 0.0 NE 0.0 0.3
04:40 2.5 1.0 97.9 1018.2 0.0 NNE 0.0 NE 0.0 0.3
04:45 2.5 1.1 97.9 1018.1 0.0 NNE 0.0 NE 0.0 0.3
04:50 2.5 1.0 98.0 1018.2 0.0 NNE 0.0 NE 0.0 0.3
04:55 2.5 1.1 98.1 1018.2 0.0 NNE 0.0 NW 0.0 0.3
05:00 2.4 1.0 97.9 1018.2 0.0 NNE 0.0 WNW 0.0 0.3
05:05 2.4 0.9 98.0 1018.1 0.0 NNE 0.0 WNW 0.0 0.3
05:10 2.4 1.0 98.1 1018.1 0.0 NNE 0.0 NNE 0.0 0.3
05:15 2.4 1.0 98.1 1018.2 0.0 NNE 0.0 NE 0.0 0.3
05:20 2.3 1.1 98.0 1018.2 1.2 SE 6.1 E 0.0 0.3
05:25 2.3 1.1 98.0 1018.2 0.1 SE 3.4 SE 0.0 0.3
05:30 2.2 0.8 98.0 1018.3 0.0 NNE 0.0 E 0.0 0.3
05:35 2.1 0.7 98.0 1018.4 0.0 NNE 0.0 E 0.0 0.3
05:40 2.1 0.6 98.0 1018.3 0.0 NNE 0.0 ENE 0.0 0.3
05:45 2.1 0.7 98.1 1018.4 0.3 NW 3.4 NW 0.0 0.3
05:50 2.0 0.5 98.0 1018.5 0.0 NNE 0.0 W 0.0 0.3
05:55 1.8 0.4 97.9 1018.5 0.0 NNE 0.0 ESE 0.0 0.3
06:00 1.8 0.3 98.0 1018.5 0.0 NNE 0.0 ENE 0.0 0.3
06:05 1.7 0.1 97.9 1018.5 0.0 NNE 0.0 N 0.0 0.3
06:10 1.6 0.0 98.0 1018.7 0.0 NNE 0.0 N 0.0 0.3
06:15 1.6 0.0 98.1 1018.8 0.0 NNE 0.0 N 0.0 0.3
06:20 1.5 -0.1 98.0 1018.8 0.0 NNE 0.0 ESE 0.0 0.3
06:25 1.4 -0.1 98.0 1018.8 0.0 NNE 0.0 ENE 0.0 0.3
06:30 1.4 -0.2 98.0 1018.9 0.0 NNE 0.0 SSE 0.0 0.3
06:35 1.3 -0.2 98.1 1018.8 0.0 NNE 0.0 ENE 0.0 0.3
06:40 1.2 -0.2 98.0 1018.9 0.0 NNE 0.0 ENE 0.0 0.3
06:45 1.2 -0.1 98.1 1019.2 0.0 NNE 0.0 ENE 0.0 0.4
06:50 1.2 -0.2 98.2 1019.2 0.0 NNE 0.0 N 0.0 0.5
06:55 1.3 -0.1 98.2 1019.2 0.0 NNE 0.0 N 0.0 1.2
07:00 1.3 0.0 98.3 1019.2 0.0 NNE 0.0 S 0.0 2.1
07:05 1.4 0.1 98.4 1019.3 0.0 NNE 0.0 S 0.0 4.2
07:10 1.5 0.3 98.3 1019.3 0.0 NNE 0.0 NNE 0.0 4.4
07:15 1.6 0.6 98.3 1019.3 0.0 NNE 0.0 WNW 0.0 6.2
07:20 1.7 0.9 98.3 1019.3 0.0 NNE 0.0 SE 0.0 8.5
07:25 1.8 1.1 98.3 1019.4 0.0 NNE 0.0 SE 0.0 11.6
07:30 1.9 1.3 98.3 1019.5 0.0 NNE 0.0 SSW 0.0 15.0
07:35 2.0 1.5 98.2 1019.6 0.0 NNE 0.0 SSW 0.0 17.5
07:40 2.2 1.6 98.2 1019.7 0.0 NNE 0.0 SSW 0.0 20.1
07:45 2.3 1.8 98.1 1019.7 0.0 NNE 0.0 SSW 0.0 26.0
07:50 2.3 1.9 98.0 1019.8 0.0 NNE 0.0 SSE 0.0 30.3
07:55 2.4 2.0 98.0 1019.8 0.0 NNE 0.0 WSW 0.0 27.0
08:00 2.6 2.2 98.2 1019.9 0.1 N 3.4 ENE 0.0 24.2
08:05 2.8 2.4 98.2 1020.1 0.0 NNE 0.0 WNW 0.0 34.1
08:10 2.9 2.6 98.2 1020.0 0.0 NNE 0.0 SSE 0.0 49.8
08:15 3.2 2.9 98.2 1020.0 0.0 NNE 0.0 SSE 0.0 63.9
08:20 3.7 3.4 98.6 1020.0 0.2 E 6.1 ESE 0.0 84.5
08:25 4.2 3.9 98.7 1019.9 0.2 ESE 3.4 E 0.0 107.1
08:30 4.5 4.3 98.5 1019.9 0.9 SE 6.1 ESE 0.0 138.3
08:35 4.8 4.7 98.4 1019.9 1.9 ENE 6.1 ENE 0.0 155.9
08:40 4.8 4.7 98.0 1020.0 4.8 NE 11.5 E 0.0 134.1
08:45 4.8 4.6 97.8 1019.9 5.2 NE 11.5 NNE 0.0 86.1
08:50 4.7 4.4 97.6 1020.1 5.1 NE 14.2 NE 0.0 68.0
08:55 4.7 4.3 97.6 1020.2 3.7 NE 11.5 N 0.0 48.4
09:00 4.7 4.2 97.7 1020.4 3.7 NE 11.5 ENE 0.0 59.7
09:05 4.7 4.3 97.7 1020.3 4.0 NE 14.2 NNE 0.0 106.2
09:10 4.9 4.8 97.8 1020.4 4.7 ENE 11.5 NE 0.0 206.6
09:15 5.2 5.1 97.7 1020.4 3.4 ENE 8.8 ESE 0.0 222.7
09:20 5.5 5.6 97.5 1020.3 2.0 E 8.8 NNE 0.0 296.4
09:25 5.7 6.0 97.0 1020.3 4.0 ENE 11.5 NE 0.0 296.9
09:30 5.7 5.7 96.1 1020.5 4.1 NE 14.2 NE 0.0 158.9
09:35 5.6 5.4 95.8 1020.5 3.5 ENE 14.2 ENE 0.0 135.9
09:40 5.5 5.6 95.9 1020.6 5.3 NE 14.2 ENE 0.0 199.3
09:45 5.6 5.8 95.8 1020.6 3.2 ENE 11.5 ENE 0.0 186.1
09:50 5.7 5.9 95.6 1020.7 3.3 ENE 11.5 NE 0.0 153.4
09:55 5.8 6.1 95.4 1020.7 2.5 ESE 8.8 ESE 0.0 218.4
10:00 5.8 6.2 94.8 1020.6 5.2 ENE 16.9 NNE 0.0 230.4
10:05 5.9 6.3 94.6 1020.7 3.4 NE 8.8 ENE 0.0 216.0
10:10 6.0 6.2 94.0 1020.7 2.7 ENE 14.2 NE 0.0 163.6
10:15 6.0 6.2 93.5 1020.7 5.0 NE 11.5 NE 0.0 205.9
10:20 6.0 6.3 93.4 1020.7 2.9 ENE 8.8 NE 0.0 232.5
10:25 6.4 7.1 93.5 1020.9 1.8 NE 14.2 NNE 0.0 368.2
10:30 7.1 8.2 92.2 1020.9 2.9 E 8.8 ENE 0.0 381.5
10:35 7.3 8.0 89.7 1020.8 1.9 SSW 8.8 SW 0.0 369.7
10:40 7.8 9.4 88.7 1020.8 1.2 WNW 8.8 N 0.0 475.6
10:45 8.5 9.9 85.7 1020.9 1.5 E 14.2 NNE 0.0 472.5
10:50 8.7 9.8 82.9 1020.8 6.0 NNE 14.2 NE 0.0 489.1
10:55 8.8 10.1 82.1 1020.8 3.6 NE 8.8 NNE 0.0 493.1
11:00 9.0 10.9 81.3 1020.6 4.5 N 11.5 NNE 0.0 512.9
11:05 9.0 10.6 80.5 1020.8 6.0 NNE 14.2 NE 0.0 510.4
11:10 9.1 10.9 80.0 1020.5 5.7 N 14.2 NNE 0.0 504.9
11:15 9.2 11.4 79.7 1020.5 3.8 NNW 11.5 N 0.0 514.3
11:20 9.5 11.8 78.3 1020.3 4.0 NNW 11.5 NNW 0.0 505.7
11:25 9.5 11.8 78.2 1020.3 5.7 N 11.5 NNE 0.0 527.9
11:30 9.7 12.4 78.1 1020.1 3.2 NNE 11.5 NE 0.0 570.4
11:35 10.0 12.5 76.3 1020.0 2.7 NNE 11.5 NE 0.0 551.3
11:40 10.7 13.0 75.3 1020.1 1.1 NE 6.1 ENE 0.0 602.5
11:45 11.1 13.7 72.8 1019.9 6.1 NNE 11.5 N 0.0 558.9
11:50 11.1 13.9 73.0 1019.8 5.4 NNE 11.5 NNE 0.0 546.0
11:55 11.3 13.9 73.0 1019.9 4.6 NNE 11.5 N 0.0 521.9
12:00 11.5 13.8 72.6 1019.7 1.9 N 8.8 NNW 0.0 518.9
12:05 11.9 14.2 71.3 1019.5 3.8 N 8.8 N 0.0 526.7
12:10 12.2 14.0 70.0 1019.3 3.3 NNW 8.8 N 0.0 541.4
12:15 12.4 15.1 70.1 1019.3 2.3 N 8.8 NNW 0.0 550.9
12:20 12.8 15.6 67.6 1019.3 4.6 NNE 11.5 NNW 0.0 530.3
12:25 12.9 15.6 67.5 1019.1 2.1 WNW 11.5 N 0.0 535.1
12:30 13.0 15.7 66.9 1019.1 3.8 NNE 8.8 E 0.0 531.0
12:35 13.5 16.0 64.6 1019.2 2.5 NNE 8.8 E 0.0 482.5
12:40 13.5 15.9 64.5 1019.1 2.8 N 8.8 N 0.0 416.7
12:45 13.5 15.7 64.8 1019.1 2.9 N 8.8 N 0.0 385.4
12:50 13.4 15.5 64.7 1019.0 1.3 NE 6.1 E 0.0 394.1
12:55 13.5 15.5 63.7 1018.9 0.5 NNW 6.1 E 0.0 380.8
13:00 13.6 15.6 62.7 1018.9 0.5 NW 6.1 N 0.0 451.8
13:05 14.0 16.4 60.7 1018.9 0.5 SW 3.4 SW 0.0 465.0
13:10 14.4 16.4 60.7 1018.9 1.3 SSW 6.1 SSW 0.0 355.4
13:15 14.7 16.3 62.3 1018.8 3.4 SE 8.8 SE 0.0 395.9
13:20 14.7 16.4 61.9 1018.6 1.5 SW 6.1 S 0.0 420.1
13:25 14.6 16.9 63.1 1018.5 0.2 WSW 3.4 WSW 0.0 336.5
13:30 14.8 16.7 63.8 1018.5 4.4 SSW 11.5 SW 0.0 383.5
13:35 14.9 16.7 65.1 1018.5 3.7 S 8.8 SSW 0.0 492.0
13:40 15.2 17.0 63.1 1018.3 2.0 SSE 8.8 S 0.0 430.2
13:45 15.2 17.2 62.4 1018.4 2.6 S 8.8 SW 0.0 368.3
13:50 15.2 16.9 62.4 1018.2 2.1 SSW 6.1 S 0.0 377.1
13:55 15.4 17.7 61.6 1018.3 3.2 SSW 8.8 SSW 0.0 416.6
14:00 15.5 17.8 60.1 1018.0 2.5 SSE 8.8 SE 0.0 434.4
14:05 15.6 18.0 58.6 1018.0 0.4 SSW 6.1 SSW 0.0 386.7
14:10 15.5 17.2 59.2 1018.0 1.9 S 8.8 SSE 0.0 366.0
14:15 15.5 16.7 59.9 1018.0 1.8 S 8.8 SE 0.0 371.4
14:20 15.3 17.4 59.6 1018.0 0.3 WNW 3.4 W 0.0 258.4
14:25 15.1 16.9 60.3 1018.0 2.7 SSE 8.8 ESE 0.0 229.2
14:30 14.9 16.1 62.6 1018.2 5.5 S 11.5 SSE 0.0 169.7
14:35 14.4 15.1 66.7 1018.0 7.1 SSE 14.2 SSE 0.0 147.4
14:40 14.0 14.4 70.0 1018.1 7.0 SSW 14.2 SSW 0.0 130.0
14:45 13.7 14.1 73.0 1018.1 6.6 SSE 16.9 SSE 0.0 176.4
14:50 13.5 14.1 74.4 1018.2 5.9 SSE 14.2 S 0.0 185.2
14:55 13.5 14.0 74.9 1018.2 5.3 S 14.2 SSE 0.0 155.2
15:00 13.5 14.0 75.6 1018.1 6.1 SSE 14.2 ESE 0.0 197.7
15:05 13.6 14.7 75.6 1018.2 3.7 S 8.8 SE 0.0 306.3
15:10 14.0 14.5 73.5 1018.2 4.2 S 11.5 SSE 0.0 208.7
15:15 13.9 14.0 73.4 1018.1 4.6 S 8.8 SSE 0.0 199.8
15:20 14.0 14.1 73.3 1018.2 5.9 SW 8.8 SW 0.0 273.5
15:25 14.3 14.3 72.4 1018.3 4.6 SSW 8.8 SSW 0.0 270.5
15:30 14.3 14.9 72.1 1018.2 6.4 SW 11.5 SW 0.0 233.1
15:35 14.2 15.0 72.6 1018.2 6.1 SW 11.5 SW 0.0 226.7
15:40 14.1 14.7 72.8 1018.1 6.5 SW 11.5 SW 0.0 223.2
15:45 14.0 14.3 73.4 1018.2 5.5 SW 11.5 SSW 0.0 187.9
15:50 13.9 14.5 74.1 1018.4 5.8 SW 11.5 SW 0.0 168.1
15:55 13.8 14.3 74.2 1018.4 4.0 SW 8.8 SW 0.0 146.3
16:00 13.7 14.0 75.1 1018.3 0.0 SW 3.4 SW 0.0 63.6
16:05 13.3 13.6 76.8 1018.4 0.2 SW 3.4 WSW 0.0 48.5
16:10 13.0 13.0 78.2 1018.4 1.1 SSW 6.1 SW 0.0 42.8
16:15 12.7 12.5 79.7 1018.6 0.1 NW 3.4 NW 0.0 36.3
16:20 12.3 12.0 81.9 1018.5 0.1 WNW 3.4 WNW 0.0 31.0
16:25 11.9 11.4 83.3 1018.5 0.0 NNE 0.0 NNW 0.0 27.8
16:30 11.6 11.0 84.6 1018.6 0.0 NE 3.4 NE 0.0 24.2
16:35 11.4 10.5 85.7 1018.6 0.0 NNE 0.0 ENE 0.0 21.2
16:40 11.1 10.1 86.8 1018.7 0.0 NNE 0.0 NNE 0.0 19.6
16:45 10.9 9.8 87.6 1018.7 0.0 NNE 0.0 N 0.0 18.8
16:50 10.7 9.5 88.5 1018.8 0.0 NNE 0.0 N 0.0 15.0
16:55 10.5 9.2 89.2 1018.9 0.0 NNE 0.0 N 0.0 11.3
17:00 10.2 9.0 89.8 1018.9 0.0 NNE 0.0 NNE 0.0 7.1
17:05 10.0 8.7 90.3 1019.0 0.0 NNE 0.0 NNE 0.0 4.0
17:10 9.8 8.5 90.9 1019.1 0.0 NNE 0.0 NNE 0.0 2.1
17:15 9.7 8.2 91.3 1019.1 0.0 NNE 0.0 ENE 0.0 1.1
17:20 9.4 8.0 91.6 1019.2 0.0 NNE 0.0 NE 0.0 0.5
17:25 9.3 7.8 92.2 1019.4 0.0 NNE 0.0 NNW 0.0 0.4
17:30 9.1 7.7 92.6 1019.4 0.0 NNE 0.0 NNW 0.0 0.3
17:35 9.1 7.8 93.1 1019.5 0.0 NNE 0.0 NNW 0.0 0.3
17:40 9.1 7.8 93.2 1019.5 0.0 NNE 0.0 NNW 0.0 0.3
17:45 9.1 7.9 93.2 1019.6 0.0 NNE 0.0 NNW 0.0 0.3
17:50 9.1 8.0 93.3 1019.6 0.0 NNE 0.0 E 0.0 0.3
17:55 9.1 8.0 93.1 1019.7 0.7 SE 6.1 SE 0.0 0.3
18:00 9.1 7.9 93.0 1019.6 0.0 NNE 0.0 ESE 0.0 0.3
18:05 9.0 7.7 92.8 1019.7 0.0 NNE 0.0 NNW 0.0 0.3
18:10 8.8 7.5 92.6 1019.6 0.0 NNE 0.0 WSW 0.0 0.3
18:15 8.5 7.3 92.8 1019.5 0.0 NNE 0.0 WSW 0.0 0.3
18:20 8.4 7.1 93.2 1019.6 0.0 NNE 0.0 WSW 0.0 0.3
18:25 8.2 6.9 93.5 1019.6 0.0 NNE 0.0 NW 0.0 0.3
18:30 8.1 6.8 93.8 1019.7 0.0 NNE 0.0 NNW 0.0 0.3
18:35 8.1 6.8 94.1 1019.8 0.0 NNE 0.0 N 0.0 0.3
18:40 8.1 6.8 94.4 1019.7 0.0 NNE 0.0 N 0.0 0.3
18:45 8.1 6.9 94.5 1019.7 0.0 NNE 0.0 NW 0.0 0.3
18:50 8.1 6.9 94.6 1019.8 0.0 NNE 0.0 NE 0.0 0.3
18:55 8.1 7.1 94.7 1019.9 0.0 NNE 0.0 NE 0.0 0.3
19:00 8.2 7.3 94.7 1020.0 0.0 NNE 0.0 SW 0.0 0.3
19:05 8.2 7.4 94.4 1020.0 0.3 W 3.4 WSW 0.0 0.3
19:10 8.2 7.4 94.2 1020.0 0.0 NNE 0.0 W 0.0 0.3
19:15 8.3 7.4 94.2 1020.1 0.0 NNE 0.0 W 0.0 0.3
19:20 8.3 7.5 94.3 1020.0 0.0 NNE 0.0 W 0.0 0.3
19:25 8.4 7.6 94.2 1020.0 0.0 NNE 0.0 W 0.0 0.3
19:30 8.4 7.6 94.0 1020.0 0.0 NNE 0.0 SW 0.0 0.3
19:35 8.5 7.6 93.8 1020.0 0.0 NNE 0.0 SW 0.0 0.3
19:40 8.5 7.6 93.8 1020.0 0.0 NNE 0.0 SW 0.0 0.3
Màxima 15.7 18.0 98.7 1020.9 7.1 SSE 16.9 SSE 0.0 602.5
Mínima 1.2 -0.2 58.6 1017.4
Total 0.0